Time;durP1;ratioP1;P1;durP2;ratioP2;P2;SDS_P1;SDS_P2;PMS_P1;PMS_P2;Temp;Humidity;BMP_temperature;BMP_pressure;BME280_temperature;BME280_humidity;BME280_pressure;Samples;Min_cycle;Max_cycle;Signal;HPM_P1;HPM_P2
2022/06/10 00:01:26;;;;;;;8.57;5.80;;;10.50;99.90;;;;;;5094998;28;20202;-73
2022/06/10 00:03:53;;;;;;;10.60;6.50;;;10.40;99.90;;;;;;5094715;28;20199;-73
2022/06/10 00:06:19;;;;;;;12.27;6.77;;;10.40;99.90;;;;;;5094628;28;20250;-73
2022/06/10 00:08:48;;;;;;;9.00;6.00;;;10.30;99.90;;;;;;5094519;28;20257;-73
2022/06/10 00:11:15;;;;;;;14.10;6.70;;;10.30;99.90;;;;;;5094598;28;20200;-73
2022/06/10 00:13:44;;;;;;;9.17;6.30;;;10.30;99.90;;;;;;5094281;28;20709;-73
2022/06/10 00:16:11;;;;;;;9.47;7.13;;;10.30;99.90;;;;;;5094587;28;20196;-73
2022/06/10 00:18:40;;;;;;;8.37;7.00;;;10.30;99.90;;;;;;5094436;28;20277;-73
2022/06/10 00:21:09;;;;;;;6.80;6.20;;;10.30;99.90;;;;;;5094496;28;20203;-73
2022/06/10 00:23:35;;;;;;;8.77;6.60;;;10.20;99.90;;;;;;5094090;28;20200;-73
2022/06/10 00:26:03;;;;;;;8.43;6.70;;;10.10;99.90;;;;;;5094116;28;20232;-73
2022/06/10 00:28:29;;;;;;;11.23;7.10;;;10.10;99.90;;;;;;5094359;28;20192;-73
2022/06/10 00:30:56;;;;;;;9.97;6.67;;;10.00;99.90;;;;;;5094283;28;20257;-72
2022/06/10 00:33:23;;;;;;;9.93;7.60;;;10.00;99.90;;;;;;5093979;28;20196;-73
2022/06/10 00:35:51;;;;;;;9.87;7.43;;;10.00;99.90;;;;;;5094091;28;20204;-73
2022/06/10 00:38:19;;;;;;;8.90;7.60;;;10.00;99.90;;;;;;5094040;28;20683;-73
2022/06/10 00:40:50;;;;;;;12.10;7.97;;;10.00;99.90;;;;;;5094244;28;20207;-73
2022/06/10 00:43:18;;;;;;;10.87;8.07;;;10.00;99.90;;;;;;5094009;28;20567;-73
2022/06/10 00:45:59;;;;;;;10.83;7.87;;;10.00;99.90;;;;;;5093881;28;20273;-73
2022/06/10 00:48:37;;;;;;;11.63;8.07;;;9.90;99.90;;;;;;5093616;28;20258;-73
2022/06/10 00:51:14;;;;;;;8.33;7.47;;;9.90;99.90;;;;;;5093807;28;20203;-73
2022/06/10 00:53:42;;;;;;;12.77;9.13;;;9.90;99.90;;;;;;5093908;28;20241;-73
2022/06/10 00:56:12;;;;;;;11.57;8.27;;;9.90;99.90;;;;;;5093880;28;20200;-73
2022/06/10 00:58:46;;;;;;;15.33;8.93;;;9.90;99.90;;;;;;5093671;28;20251;-73
2022/06/10 01:01:14;;;;;;;13.07;9.37;;;10.00;99.90;;;;;;5093745;28;20230;-73
2022/06/10 01:03:42;;;;;;;14.13;9.67;;;10.00;99.90;;;;;;5093342;28;20800;-73
2022/06/10 01:06:11;;;;;;;15.30;9.70;;;10.00;99.90;;;;;;5093035;28;20322;-73
2022/06/10 01:08:39;;;;;;;11.23;9.30;;;10.00;99.90;;;;;;5093599;28;20196;-73
2022/06/10 01:11:24;;;;;;;11.90;9.40;;;10.00;99.90;;;;;;5093427;28;20762;-73
2022/06/10 01:13:57;;;;;;;13.70;9.33;;;10.00;99.90;;;;;;5093346;28;20560;-73
2022/06/10 01:16:32;;;;;;;13.87;9.40;;;10.00;99.90;;;;;;5093687;28;20207;-73
2022/06/10 01:19:09;;;;;;;12.30;8.43;;;10.00;99.90;;;;;;5093362;28;20587;-72
2022/06/10 01:22:01;;;;;;;13.30;9.47;;;10.00;99.90;;;;;;5093400;28;20204;-72
2022/06/10 01:24:55;;;;;;;15.97;9.90;;;9.90;99.90;;;;;;5089809;28;20287;-73
2022/06/10 01:27:49;;;;;;;11.00;9.80;;;9.90;99.90;;;;;;5093273;28;20200;-73
2022/06/10 01:30:34;;;;;;;12.13;9.20;;;10.00;99.90;;;;;;5077318;28;20196;-73
2022/06/10 01:33:13;;;;;;;12.03;8.63;;;9.80;99.90;;;;;;5075938;28;20656;-73
2022/06/10 01:35:46;;;;;;;11.43;9.03;;;9.80;99.90;;;;;;5093214;28;20196;-73
2022/06/10 01:38:23;;;;;;;13.20;9.60;;;9.80;99.90;;;;;;5093107;28;20204;-73
2022/06/10 01:41:01;;;;;;;12.47;9.23;;;9.80;99.90;;;;;;5093107;28;20195;-73
2022/06/10 01:43:38;;;;;;;10.33;8.77;;;9.80;99.90;;;;;;5092912;28;20732;-73
2022/06/10 01:46:12;;;;;;;12.10;9.37;;;9.70;99.90;;;;;;5093029;28;20228;-73
2022/06/10 01:48:48;;;;;;;12.03;9.03;;;9.70;99.90;;;;;;5092725;28;20223;-73
2022/06/10 01:51:20;;;;;;;13.33;9.03;;;9.60;99.90;;;;;;5092905;28;20207;-73
2022/06/10 01:53:53;;;;;;;10.90;9.73;;;9.70;99.90;;;;;;5093081;28;20188;-72
2022/06/10 01:56:26;;;;;;;12.53;9.13;;;9.70;99.90;;;;;;5093003;28;20283;-73
2022/06/10 01:58:59;;;;;;;14.67;9.77;;;9.70;99.90;;;;;;5092767;28;20246;-73
2022/06/10 02:01:30;;;;;;;14.13;9.97;;;9.80;99.90;;;;;;5092827;28;20200;-73
2022/06/10 02:04:04;;;;;;;15.87;9.80;;;9.80;99.90;;;;;;5092734;28;20207;-72
2022/06/10 02:06:35;;;;;;;12.43;10.27;;;9.70;99.90;;;;;;5092968;28;20232;-73
2022/06/10 02:09:05;;;;;;;13.53;9.50;;;9.70;99.90;;;;;;5092600;28;20664;-73
2022/06/10 02:11:34;;;;;;;13.20;9.77;;;9.60;99.90;;;;;;5092665;28;20713;-73
2022/06/10 02:14:04;;;;;;;10.77;9.17;;;9.60;99.90;;;;;;5092600;28;20200;-73
2022/06/10 02:16:34;;;;;;;13.40;9.83;;;9.60;99.90;;;;;;5093920;28;20196;-73
2022/06/10 02:19:09;;;;;;;12.23;9.50;;;9.50;99.90;;;;;;5096669;28;20582;-73
2022/06/10 02:21:43;;;;;;;12.17;10.07;;;9.50;99.90;;;;;;5096828;28;20195;-73
2022/06/10 02:24:15;;;;;;;14.07;10.13;;;9.50;99.90;;;;;;5096536;28;20687;-73
2022/06/10 02:26:42;;;;;;;14.27;9.50;;;9.50;99.90;;;;;;5096516;28;20219;-73
2022/06/10 02:29:11;;;;;;;17.90;10.47;;;9.40;99.90;;;;;;5096403;28;20940;-73
2022/06/10 02:31:43;;;;;;;16.13;9.70;;;9.40;99.90;;;;;;5096456;28;20279;-73
2022/06/10 02:34:13;;;;;;;15.07;9.50;;;9.30;99.90;;;;;;5096387;28;20537;-73
2022/06/10 02:36:46;;;;;;;16.13;9.23;;;9.30;99.90;;;;;;5096489;28;20204;-74
2022/06/10 02:39:24;;;;;;;16.83;10.30;;;9.30;99.90;;;;;;5096263;28;20316;-73
2022/06/10 02:41:58;;;;;;;14.27;9.70;;;9.20;99.90;;;;;;5096553;28;20579;-73
2022/06/10 02:44:31;;;;;;;13.90;10.47;;;9.30;99.90;;;;;;5096434;28;20238;-73
2022/06/10 02:47:05;;;;;;;13.97;10.33;;;9.20;99.90;;;;;;5096146;28;20231;-73
2022/06/10 02:49:34;;;;;;;14.73;10.97;;;9.30;99.90;;;;;;5096126;28;20204;-73
2022/06/10 02:52:01;;;;;;;12.93;10.20;;;9.30;99.90;;;;;;5096064;28;20205;-73
2022/06/10 02:54:31;;;;;;;14.07;10.90;;;9.30;99.90;;;;;;5096229;28;20248;-73
2022/06/10 02:56:58;;;;;;;14.67;10.93;;;9.30;99.90;;;;;;5096172;28;20200;-73
2022/06/10 03:02:23;;;;;;;17.40;10.70;;;9.30;99.90;;;;;;5095883;28;20199;-73
2022/06/10 03:05:03;;;;;;;17.63;11.97;;;9.30;99.90;;;;;;5095762;28;20698;-73
2022/06/10 03:07:43;;;;;;;16.30;10.60;;;9.40;99.90;;;;;;5095730;28;20223;-72
2022/06/10 03:10:19;;;;;;;14.73;11.23;;;9.30;99.90;;;;;;5095811;28;20203;-73
2022/06/10 03:12:56;;;;;;;13.53;10.13;;;9.30;99.90;;;;;;5095729;28;20200;-73
2022/06/10 03:15:42;;;;;;;16.97;10.63;;;9.10;99.90;;;;;;5095840;28;20245;-73
2022/06/10 03:18:18;;;;;;;15.90;9.90;;;9.00;99.90;;;;;;5095785;28;20225;-73
2022/06/10 03:20:54;;;;;;;15.37;10.70;;;9.10;99.90;;;;;;5095460;28;20594;-73
2022/06/10 03:23:27;;;;;;;12.23;10.07;;;9.20;99.90;;;;;;5095432;28;20619;-73
2022/06/10 03:25:58;;;;;;;13.57;10.13;;;9.00;99.90;;;;;;5095491;28;20365;-73
2022/06/10 03:28:34;;;;;;;18.03;11.27;;;9.00;99.90;;;;;;5094954;28;20254;-73
2022/06/10 03:31:08;;;;;;;16.77;11.30;;;9.10;99.90;;;;;;5095329;28;20644;-73
2022/06/10 03:33:41;;;;;;;20.10;11.57;;;9.20;99.90;;;;;;5095269;28;20200;-73
2022/06/10 03:36:12;;;;;;;17.13;11.37;;;9.30;99.90;;;;;;5095177;28;20717;-72
2022/06/10 03:38:41;;;;;;;14.47;11.37;;;9.30;99.90;;;;;;5095389;28;20200;-73
2022/06/10 03:41:08;;;;;;;14.03;11.70;;;9.20;99.90;;;;;;5095028;28;20196;-72
2022/06/10 03:43:38;;;;;;;19.23;11.93;;;9.20;99.90;;;;;;5095064;28;20200;-73
2022/06/10 03:46:09;;;;;;;17.87;11.83;;;9.10;99.90;;;;;;5094876;28;20219;-73
2022/06/10 03:48:39;;;;;;;17.60;12.33;;;9.10;99.90;;;;;;5095067;28;20228;-73
2022/06/10 03:51:07;;;;;;;15.60;11.17;;;9.00;99.90;;;;;;5095014;28;20196;-73
2022/06/10 03:53:35;;;;;;;15.03;11.70;;;9.10;99.90;;;;;;5095029;28;20206;-72
2022/06/10 03:56:02;;;;;;;14.30;11.43;;;9.10;99.90;;;;;;5094840;28;20354;-73
2022/06/10 03:58:29;;;;;;;14.33;11.70;;;9.10;99.90;;;;;;5094801;28;20201;-73
2022/06/10 04:00:58;;;;;;;15.33;10.77;;;9.10;99.90;;;;;;5094881;28;20200;-73
2022/06/10 04:03:25;;;;;;;13.43;10.40;;;9.00;99.90;;;;;;5094665;28;20667;-73
2022/06/10 04:05:51;;;;;;;17.00;11.87;;;9.10;99.90;;;;;;5094574;28;20196;-73
2022/06/10 04:08:18;;;;;;;12.97;10.67;;;9.20;99.90;;;;;;5094640;28;20249;-73
2022/06/10 04:10:46;;;;;;;15.73;11.57;;;9.20;99.90;;;;;;5094451;28;20559;-73
2022/06/10 04:13:17;;;;;;;13.73;11.90;;;9.30;99.90;;;;;;5094432;28;20200;-73
2022/06/10 04:15:44;;;;;;;12.90;10.87;;;9.40;99.90;;;;;;5094605;28;20219;-72
2022/06/10 04:18:11;;;;;;;15.83;11.37;;;9.40;99.90;;;;;;5094581;28;20226;-73
2022/06/10 04:20:39;;;;;;;13.40;11.30;;;9.50;99.90;;;;;;5094446;28;20204;-73
2022/06/10 04:23:07;;;;;;;15.07;11.33;;;9.60;99.90;;;;;;5094261;28;20598;-73
2022/06/10 04:25:36;;;;;;;11.80;10.57;;;9.70;99.90;;;;;;5094207;28;20193;-73
2022/06/10 04:28:05;;;;;;;11.50;10.30;;;9.80;99.90;;;;;;5094344;28;20315;-76
2022/06/10 04:30:35;;;;;;;13.67;10.67;;;9.90;99.90;;;;;;5094403;28;20254;-77
2022/06/10 04:33:02;;;;;;;15.50;10.27;;;10.00;99.90;;;;;;5094208;28;20652;-77
2022/06/10 04:35:30;;;;;;;12.93;10.93;;;10.20;99.90;;;;;;5094411;28;20594;-78
2022/06/10 04:37:57;;;;;;;13.87;10.10;;;10.30;99.90;;;;;;5094216;28;20207;-76
2022/06/10 04:40:29;;;;;;;13.17;10.90;;;10.40;99.90;;;;;;5093195;28;20253;-76
2022/06/10 04:42:56;;;;;;;12.30;10.30;;;10.50;99.90;;;;;;5093974;28;20250;-76
2022/06/10 04:45:27;;;;;;;15.57;10.43;;;10.60;99.90;;;;;;5094058;28;20196;-76
2022/06/10 04:47:54;;;;;;;12.33;9.50;;;10.60;99.90;;;;;;5093729;28;20240;-80
2022/06/10 04:50:23;;;;;;;13.90;11.23;;;10.70;99.90;;;;;;5094147;28;20247;-78
2022/06/10 04:52:49;;;;;;;17.87;13.50;;;10.80;99.90;;;;;;5094000;28;20245;-77
2022/06/10 04:55:16;;;;;;;13.17;11.83;;;10.90;99.90;;;;;;5091681;28;20204;-78
2022/06/10 04:57:43;;;;;;;13.13;10.17;;;11.00;99.90;;;;;;5091045;28;20204;-78
2022/06/10 05:00:15;;;;;;;11.80;8.97;;;11.10;99.90;;;;;;5093281;28;20537;-79
2022/06/10 05:02:43;;;;;;;11.50;9.73;;;11.20;99.90;;;;;;5093582;28;20644;-78
2022/06/10 05:05:10;;;;;;;12.50;9.43;;;11.30;99.90;;;;;;5093149;28;20709;-74
2022/06/10 05:07:37;;;;;;;14.30;10.30;;;11.40;99.90;;;;;;5092844;28;20760;-74
2022/06/10 05:10:05;;;;;;;12.40;10.00;;;11.50;99.90;;;;;;5091706;28;20192;-74
2022/06/10 05:12:31;;;;;;;12.13;9.20;;;11.60;99.90;;;;;;5087926;28;20230;-74
2022/06/10 05:14:58;;;;;;;10.57;9.10;;;11.70;99.90;;;;;;5092847;28;20204;-74
2022/06/10 05:17:25;;;;;;;12.67;9.53;;;11.80;99.90;;;;;;5088074;28;20196;-73
2022/06/10 05:19:53;;;;;;;13.13;8.97;;;11.90;99.90;;;;;;5092679;28;20196;-72
2022/06/10 05:22:19;;;;;;;11.37;8.83;;;11.90;99.90;;;;;;5092566;28;20197;-73
2022/06/10 05:24:46;;;;;;;11.03;9.00;;;12.00;99.90;;;;;;5093109;28;20196;-74
2022/06/10 05:27:13;;;;;;;10.47;9.03;;;12.10;99.90;;;;;;5090296;28;20212;-73
2022/06/10 05:29:39;;;;;;;9.87;8.43;;;12.20;99.90;;;;;;5089922;28;20196;-73
2022/06/10 05:32:07;;;;;;;10.63;8.37;;;12.30;99.90;;;;;;5090844;28;20714;-73
2022/06/10 05:34:46;;;;;;;10.23;8.17;;;12.40;99.90;;;;;;5092566;28;20245;-74
2022/06/10 05:37:15;;;;;;;12.13;8.70;;;12.50;99.90;;;;;;5092437;28;20204;-74
2022/06/10 05:39:42;;;;;;;10.23;8.77;;;12.60;99.90;;;;;;5092609;28;20222;-73
2022/06/10 05:42:09;;;;;;;11.50;9.03;;;12.70;99.90;;;;;;5092696;28;20266;-74
2022/06/10 05:44:38;;;;;;;10.27;8.30;;;12.80;99.90;;;;;;5092682;28;20617;-73
2022/06/10 05:47:07;;;;;;;9.80;7.97;;;12.90;99.90;;;;;;5092119;28;20212;-73
2022/06/10 05:49:35;;;;;;;12.80;8.73;;;13.00;99.90;;;;;;5092047;28;20218;-74
2022/06/10 05:52:02;;;;;;;12.17;8.27;;;13.10;99.90;;;;;;5092504;28;20196;-73
2022/06/10 05:54:30;;;;;;;11.23;8.40;;;13.20;99.90;;;;;;5092579;28;20208;-74
2022/06/10 05:56:56;;;;;;;13.50;8.47;;;13.20;99.90;;;;;;5092171;28;20200;-76
2022/06/10 05:59:23;;;;;;;10.13;7.97;;;13.40;99.90;;;;;;5092759;28;20594;-75
2022/06/10 06:01:50;;;;;;;11.70;8.43;;;13.50;99.90;;;;;;5092937;28;20202;-75
2022/06/10 06:04:17;;;;;;;11.17;7.87;;;13.60;99.90;;;;;;5092864;28;20197;-74
2022/06/10 06:06:43;;;;;;;10.80;7.70;;;13.70;99.90;;;;;;5092676;28;20224;-77
2022/06/10 06:09:13;;;;;;;10.33;7.77;;;13.80;99.90;;;;;;5092743;28;20192;-76
2022/06/10 06:11:42;;;;;;;8.40;7.50;;;13.90;99.90;;;;;;5092591;28;20287;-76
2022/06/10 06:14:08;;;;;;;8.83;7.07;;;14.00;99.90;;;;;;5092781;28;20197;-74
2022/06/10 06:16:35;;;;;;;8.27;7.40;;;14.10;99.90;;;;;;5092631;28;20246;-78
2022/06/10 06:19:03;;;;;;;9.90;7.37;;;14.10;99.90;;;;;;5089690;28;20203;-74
2022/06/10 06:21:31;;;;;;;8.17;6.77;;;14.20;99.90;;;;;;5091924;28;20655;-73
2022/06/10 06:23:58;;;;;;;12.70;7.40;;;14.30;99.90;;;;;;5092414;28;20555;-73
2022/06/10 06:26:24;;;;;;;9.70;7.43;;;14.30;99.90;;;;;;5091441;28;20237;-73
2022/06/10 06:28:52;;;;;;;7.10;6.40;;;14.40;99.90;;;;;;5092384;28;20289;-73
2022/06/10 06:31:19;;;;;;;6.77;6.07;;;14.40;99.90;;;;;;5092576;28;20223;-73
2022/06/10 06:33:46;;;;;;;7.70;6.20;;;14.60;99.90;;;;;;5092300;28;20713;-73
2022/06/10 06:36:18;;;;;;;8.47;6.03;;;14.70;99.90;;;;;;5092264;28;20192;-73
2022/06/10 06:38:44;;;;;;;7.00;6.10;;;14.70;99.90;;;;;;5092344;28;20250;-73
2022/06/10 06:41:11;;;;;;;6.07;5.47;;;14.80;99.90;;;;;;5092132;28;20196;-74
2022/06/10 06:43:38;;;;;;;7.03;5.80;;;14.80;99.90;;;;;;5092584;28;20196;-73
2022/06/10 06:46:06;;;;;;;7.47;6.10;;;14.90;99.90;;;;;;5092535;28;20246;-73
2022/06/10 06:48:33;;;;;;;7.17;5.77;;;14.90;99.90;;;;;;5092208;28;20289;-73
2022/06/10 06:50:59;;;;;;;7.30;5.47;;;15.00;99.90;;;;;;5092327;28;20227;-73
2022/06/10 06:53:26;;;;;;;6.27;4.33;;;15.10;99.90;;;;;;5092235;28;20200;-73
2022/06/10 06:55:53;;;;;;;4.40;3.70;;;15.10;99.90;;;;;;5092169;28;20648;-73
2022/06/10 06:58:20;;;;;;;5.67;4.40;;;15.30;99.90;;;;;;5092337;28;20200;-73
2022/06/10 07:00:47;;;;;;;4.70;4.30;;;15.30;99.90;;;;;;5092295;28;20197;-73
2022/06/10 07:03:15;;;;;;;6.97;4.67;;;15.40;99.90;;;;;;5092828;28;20724;-73
2022/06/10 07:05:42;;;;;;;6.87;5.17;;;15.50;99.90;;;;;;5095765;28;20200;-73
2022/06/10 07:08:10;;;;;;;7.33;4.67;;;15.60;99.90;;;;;;5094604;28;20220;-73
2022/06/10 07:10:37;;;;;;;5.07;4.57;;;15.70;99.90;;;;;;5095574;28;20197;-73
2022/06/10 07:13:03;;;;;;;7.43;4.53;;;15.90;99.90;;;;;;5095840;28;20197;-73
2022/06/10 07:15:30;;;;;;;4.87;4.47;;;15.80;99.90;;;;;;5095628;28;20200;-73
2022/06/10 07:17:57;;;;;;;5.07;4.57;;;15.90;99.90;;;;;;5095632;28;20193;-73
2022/06/10 07:20:27;;;;;;;7.60;4.73;;;16.00;99.90;;;;;;5095568;28;20199;-73
2022/06/10 07:22:54;;;;;;;5.97;4.93;;;16.00;99.90;;;;;;5095423;28;20200;-73
2022/06/10 07:25:22;;;;;;;7.73;4.90;;;16.00;99.90;;;;;;5095613;28;20196;-73
2022/06/10 07:27:52;;;;;;;5.67;4.90;;;16.10;99.90;;;;;;5095456;28;20266;-73
2022/06/10 07:30:20;;;;;;;5.27;4.30;;;16.20;99.90;;;;;;5095428;28;20200;-73
2022/06/10 07:32:47;;;;;;;4.07;3.47;;;16.20;99.90;;;;;;5095400;28;20200;-73
2022/06/10 07:35:15;;;;;;;5.95;3.80;;;16.20;99.90;;;;;;5095254;28;20197;-73
2022/06/10 07:37:43;;;;;;;6.00;3.88;;;16.40;99.90;;;;;;5095494;28;20250;-73
2022/06/10 07:41:56;;;;;;;6.33;3.57;;;16.40;99.90;;;;;;5095023;28;20610;-73
2022/06/10 07:42:58;;;;;;;3.90;3.60;;;16.40;99.90;;;;;;5094964;28;20253;-73
2022/06/10 07:45:24;;;;;;;4.03;3.50;;;16.60;99.90;;;;;;5095112;28;20200;-73
2022/06/10 07:47:51;;;;;;;4.50;3.72;;;16.70;99.90;;;;;;5094652;28;20240;-73
2022/06/10 07:50:21;;;;;;;6.40;3.70;;;16.80;99.90;;;;;;5094946;28;20656;-73
2022/06/10 07:52:49;;;;;;;5.13;4.05;;;17.00;99.90;;;;;;5095045;28;20196;-73
2022/06/10 07:55:16;;;;;;;3.60;3.30;;;17.10;99.90;;;;;;5094965;28;20277;-73
2022/06/10 07:57:43;;;;;;;4.10;3.15;;;17.20;99.90;;;;;;5094806;28;20273;-72
2022/06/10 08:00:12;;;;;;;3.47;2.55;;;17.40;99.90;;;;;;5094811;28;20273;-73
2022/06/10 08:02:39;;;;;;;2.95;2.65;;;17.50;99.90;;;;;;5094621;28;20200;-72
2022/06/10 08:05:08;;;;;;;3.78;2.55;;;17.70;99.90;;;;;;5094791;28;20254;-73
2022/06/10 08:07:37;;;;;;;3.47;3.17;;;17.70;99.90;;;;;;5094529;28;20220;-72
2022/06/10 08:10:07;;;;;;;4.63;3.17;;;17.70;99.90;;;;;;5094626;28;20196;-72
2022/06/10 08:12:34;;;;;;;4.95;3.15;;;17.70;99.90;;;;;;5094387;28;20237;-73
2022/06/10 08:15:00;;;;;;;4.10;3.30;;;17.80;99.90;;;;;;5094212;28;20200;-73
2022/06/10 08:17:27;;;;;;;3.78;3.28;;;18.00;99.90;;;;;;5094606;28;20196;-73
2022/06/10 08:19:54;;;;;;;4.10;2.83;;;18.10;99.90;;;;;;5094451;28;20196;-73
2022/06/10 08:25:12;;;;;;;4.75;2.58;;;18.60;99.90;;;;;;5078219;28;20677;-72
2022/06/10 08:27:39;;;;;;;2.90;2.60;;;18.50;99.90;;;;;;5094414;28;20278;-73
2022/06/10 08:30:09;;;;;;;3.08;2.78;;;18.80;99.90;;;;;;5094434;28;20196;-73
2022/06/10 08:32:36;;;;;;;3.70;2.70;;;18.70;99.90;;;;;;5094405;28;20196;-73
2022/06/10 08:35:03;;;;;;;5.97;2.75;;;19.00;99.90;;;;;;5094582;28;20253;-73
2022/06/10 08:37:29;;;;;;;3.40;2.35;;;19.20;99.90;;;;;;5094097;28;20265;-73
2022/06/10 08:39:56;;;;;;;4.95;3.20;;;19.30;99.90;;;;;;5093926;28;20253;-72
2022/06/10 08:42:36;;;;;;;2.60;2.40;;;19.40;99.90;;;;;;5093879;28;20204;-73
2022/06/10 08:45:13;;;;;;;2.40;2.10;;;19.60;99.90;;;;;;5093836;28;20207;-72
2022/06/10 08:47:58;;;;;;;3.83;2.50;;;19.60;99.90;;;;;;5093714;28;20232;-73
2022/06/10 08:50:45;;;;;;;5.57;2.85;;;20.00;99.90;;;;;;5093999;28;20204;-73
2022/06/10 08:53:22;;;;;;;3.88;2.80;;;20.00;99.90;;;;;;5093787;28;20196;-73
2022/06/10 08:55:55;;;;;;;3.85;2.70;;;19.40;99.90;;;;;;5093708;28;20659;-73
2022/06/10 08:58:28;;;;;;;3.67;3.03;;;19.60;99.90;;;;;;5093576;28;20269;-73
2022/06/10 09:00:59;;;;;;;4.18;2.88;;;19.50;99.90;;;;;;5093912;28;20200;-73
2022/06/10 09:03:35;;;;;;;4.47;3.03;;;19.70;99.90;;;;;;5093493;28;20651;-73
2022/06/10 09:06:04;;;;;;;3.45;2.80;;;19.40;99.90;;;;;;5093618;28;20196;-73
2022/06/10 09:08:35;;;;;;;4.97;3.50;;;19.70;99.90;;;;;;5093248;28;20687;-73
2022/06/10 09:11:13;;;;;;;3.17;2.90;;;19.90;99.90;;;;;;5093351;28;20707;-73
2022/06/10 09:13:46;;;;;;;3.00;2.70;;;20.10;99.90;;;;;;5093627;28;20192;-73
2022/06/10 09:16:18;;;;;;;3.72;3.00;;;20.40;99.90;;;;;;5093428;28;20192;-73
2022/06/10 09:18:57;;;;;;;4.20;2.58;;;20.60;99.90;;;;;;5093377;28;20200;-74
2022/06/10 09:21:30;;;;;;;4.15;2.60;;;20.90;99.90;;;;;;5093117;28;20196;-73
2022/06/10 09:24:01;;;;;;;4.88;2.70;;;21.10;99.90;;;;;;5093421;28;20204;-73
2022/06/10 09:26:36;;;;;;;6.00;2.40;;;21.30;99.90;;;;;;5093019;28;20249;-73
2022/06/10 09:29:04;;;;;;;3.60;2.40;;;22.00;99.90;;;;;;5093020;28;20273;-73
2022/06/10 09:31:39;;;;;;;4.35;2.40;;;22.30;98.80;;;;;;5093063;28;20200;-73
2022/06/10 09:34:19;;;;;;;2.67;2.25;;;22.50;97.20;;;;;;5093016;28;20693;-74
2022/06/10 09:36:58;;;;;;;2.38;2.10;;;22.10;96.40;;;;;;5092925;28;20705;-73
2022/06/10 09:42:26;;;;;;;2.35;1.92;;;22.60;94.70;;;;;;5092835;28;20275;-73
2022/06/10 09:44:57;;;;;;;4.85;2.25;;;22.90;91.90;;;;;;5093076;28;20555;-73
2022/06/10 09:47:33;;;;;;;3.17;2.15;;;22.90;92.40;;;;;;5092778;28;20228;-73
2022/06/10 09:50:13;;;;;;;3.47;1.90;;;23.20;91.80;;;;;;5092862;28;20205;-73
2022/06/10 09:52:52;;;;;;;3.15;2.20;;;23.80;86.50;;;;;;5092785;28;20652;-73
2022/06/10 09:55:32;;;;;;;3.63;1.98;;;23.10;82.60;;;;;;5093170;28;20200;-73
2022/06/10 09:58:20;;;;;;;2.50;1.80;;;24.40;78.80;;;;;;5092855;28;20517;-74
2022/06/10 10:00:56;;;;;;;2.30;1.88;;;24.70;74.30;;;;;;5092620;28;20655;-73
2022/06/10 10:03:39;;;;;;;3.47;1.90;;;24.20;74.20;;;;;;5092575;28;20200;-73
2022/06/10 10:06:27;;;;;;;5.50;2.13;;;24.30;72.10;;;;;;5092816;28;20603;-73
2022/06/10 10:08:59;;;;;;;4.18;2.10;;;24.00;69.20;;;;;;5092729;28;20226;-73
2022/06/10 10:11:36;;;;;;;2.28;2.08;;;23.20;71.00;;;;;;5092720;28;20238;-73
2022/06/10 10:14:12;;;;;;;5.03;2.00;;;23.40;71.40;;;;;;5093009;28;20235;-74
2022/06/10 10:16:49;;;;;;;4.05;1.88;;;24.00;72.30;;;;;;5092774;28;20199;-73
2022/06/10 10:19:38;;;;;;;3.97;2.10;;;24.50;64.40;;;;;;5092684;28;20609;-74
2022/06/10 10:22:27;;;;;;;2.92;1.95;;;24.40;65.10;;;;;;5089275;28;20196;-74
2022/06/10 10:24:54;;;;;;;5.25;2.40;;;24.60;66.00;;;;;;5092659;28;20196;-73
2022/06/10 10:27:23;;;;;;;2.95;1.80;;;24.40;66.70;;;;;;5092578;28;20204;-73
2022/06/10 10:29:54;;;;;;;2.92;1.98;;;25.20;61.50;;;;;;5092678;28;20273;-73
2022/06/10 10:32:27;;;;;;;5.15;2.25;;;24.90;61.30;;;;;;5092267;28;20208;-74
2022/06/10 10:35:03;;;;;;;3.90;2.00;;;25.40;56.50;;;;;;5092634;28;20200;-74
2022/06/10 10:37:33;;;;;;;4.43;1.65;;;25.60;57.50;;;;;;5092558;28;20196;-74
2022/06/10 10:40:04;;;;;;;4.07;2.20;;;26.10;56.90;;;;;;5095960;28;20196;-75
2022/06/10 10:42:34;;;;;;;2.50;1.88;;;25.10;56.60;;;;;;5096159;28;20200;-74
2022/06/10 10:45:05;;;;;;;2.95;1.80;;;25.60;57.20;;;;;;5096159;28;20292;-74
2022/06/10 10:47:35;;;;;;;3.78;1.70;;;25.70;54.20;;;;;;5095812;28;20235;-74
2022/06/10 10:50:16;;;;;;;2.38;1.70;;;26.00;51.70;;;;;;5096143;28;20227;-74
2022/06/10 10:52:45;;;;;;;2.65;1.70;;;27.20;50.00;;;;;;5096124;28;20218;-74
2022/06/10 10:55:28;;;;;;;2.63;1.70;;;27.50;46.10;;;;;;5096028;28;20197;-74
2022/06/10 10:58:04;;;;;;;3.65;2.25;;;28.90;46.00;;;;;;5096148;28;20223;-74
2022/06/10 11:00:37;;;;;;;2.17;1.75;;;27.20;45.50;;;;;;5095931;28;20537;-74
2022/06/10 11:03:06;;;;;;;3.63;2.00;;;27.40;44.40;;;;;;5095919;28;20671;-75
2022/06/10 11:05:35;;;;;;;3.13;1.92;;;28.60;42.40;;;;;;5095727;28;20197;-74
2022/06/10 11:08:30;;;;;;;4.32;1.98;;;28.30;38.10;;;;;;5095895;28;20236;-75
2022/06/10 11:11:05;;;;;;;2.78;1.70;;;27.40;36.40;;;;;;5048924;28;20284;-75
2022/06/10 11:13:37;;;;;;;4.68;1.70;;;28.30;36.20;;;;;;5095761;28;20196;-75
2022/06/10 11:16:40;;;;;;;4.13;2.20;;;28.30;34.30;;;;;;5095527;28;20242;-75
2022/06/10 11:19:26;;;;;;;3.00;1.65;;;28.80;34.00;;;;;;5095473;28;20194;-75
2022/06/10 11:22:13;;;;;;;4.47;1.83;;;29.80;33.30;;;;;;5094669;28;20200;-75
2022/06/10 11:24:44;;;;;;;3.88;2.00;;;31.40;32.90;;;;;;5078432;28;20208;-75
2022/06/10 11:27:28;;;;;;;3.95;1.70;;;31.40;30.20;;;;;;5095557;28;20208;-74
2022/06/10 11:30:16;;;;;;;3.20;1.92;;;30.90;30.80;;;;;;5095228;28;20269;-76
2022/06/10 11:32:57;;;;;;;4.13;1.63;;;31.60;29.90;;;;;;5095219;28;20265;-75
2022/06/10 11:35:29;;;;;;;3.35;2.00;;;31.20;28.20;;;;;;5095481;28;20203;-75
2022/06/10 11:37:58;;;;;;;3.70;1.60;;;30.40;28.40;;;;;;5095288;28;20196;-75
2022/06/10 11:40:28;;;;;;;4.45;1.52;;;30.00;28.70;;;;;;5095271;28;20196;-75
2022/06/10 11:43:01;;;;;;;3.20;1.73;;;28.30;29.50;;;;;;5095068;28;20192;-76
2022/06/10 11:45:34;;;;;;;4.00;1.77;;;27.40;31.50;;;;;;5095471;28;20206;-76
2022/06/10 11:48:05;;;;;;;2.78;1.77;;;26.90;31.70;;;;;;5094894;28;20224;-73
2022/06/10 11:50:39;;;;;;;4.07;1.90;;;27.10;31.10;;;;;;5094618;28;20224;-73
2022/06/10 11:53:14;;;;;;;4.13;1.92;;;26.60;31.80;;;;;;5094868;28;20197;-73
2022/06/10 11:55:43;;;;;;;2.60;1.83;;;27.00;32.70;;;;;;5094810;28;20199;-73
2022/06/10 12:01:07;;;;;;;2.55;1.88;;;26.40;34.30;;;;;;5094848;28;20199;-73
2022/06/10 12:03:40;;;;;;;3.35;1.90;;;26.30;35.30;;;;;;5094786;28;20200;-73
2022/06/10 12:06:15;;;;;;;3.78;1.92;;;26.10;35.70;;;;;;5094631;28;20196;-73
2022/06/10 12:08:48;;;;;;;3.83;2.15;;;25.20;34.50;;;;;;5094794;28;20277;-73
2022/06/10 12:11:35;;;;;;;3.90;2.08;;;24.70;35.60;;;;;;5094592;28;20204;-73
2022/06/10 12:14:11;;;;;;;1.85;1.65;;;24.60;36.60;;;;;;5094473;28;20196;-73
2022/06/10 12:16:40;;;;;;;5.57;2.05;;;24.60;36.60;;;;;;5094535;28;20196;-73
2022/06/10 12:19:14;;;;;;;4.82;2.00;;;24.40;36.70;;;;;;5094558;28;20212;-73
2022/06/10 12:21:43;;;;;;;3.45;1.80;;;24.20;36.40;;;;;;5094410;28;20199;-73
2022/06/10 12:24:15;;;;;;;4.53;2.22;;;24.20;37.20;;;;;;5094116;28;20626;-73
2022/06/10 12:26:49;;;;;;;4.25;2.30;;;23.90;37.60;;;;;;5094249;28;20289;-73
2022/06/10 12:29:18;;;;;;;4.15;1.90;;;23.60;38.60;;;;;;5094048;28;20690;-73
2022/06/10 12:31:54;;;;;;;2.88;1.88;;;23.90;39.10;;;;;;5094451;28;20204;-73
2022/06/10 12:34:28;;;;;;;4.25;2.00;;;24.20;39.10;;;;;;5094199;28;20563;-73
2022/06/10 12:37:00;;;;;;;3.78;2.08;;;24.10;39.50;;;;;;5094110;28;20254;-73
2022/06/10 12:39:31;;;;;;;5.68;2.30;;;23.90;38.20;;;;;;5093961;28;20249;-73
2022/06/10 12:42:04;;;;;;;2.38;1.90;;;23.80;39.30;;;;;;5094168;28;20306;-73
2022/06/10 12:44:35;;;;;;;2.67;2.00;;;24.10;40.30;;;;;;5093992;28;20238;-73
2022/06/10 12:47:07;;;;;;;2.42;1.80;;;24.30;39.20;;;;;;5093922;28;20667;-73
2022/06/10 12:49:40;;;;;;;4.95;2.10;;;23.70;38.80;;;;;;5093587;28;20242;-73
2022/06/10 12:52:23;;;;;;;3.63;2.30;;;24.00;39.60;;;;;;5094006;28;20296;-73
2022/06/10 12:54:57;;;;;;;3.45;2.00;;;24.30;38.90;;;;;;5094239;28;20246;-72
2022/06/10 12:57:42;;;;;;;4.65;2.00;;;24.60;38.40;;;;;;5094027;28;20196;-73
2022/06/10 13:00:38;;;;;;;3.65;2.05;;;24.20;38.60;;;;;;5093401;28;20200;-72
2022/06/10 13:03:33;;;;;;;4.18;2.00;;;24.90;38.40;;;;;;5093524;28;20261;-73
2022/06/10 13:06:06;;;;;;;2.97;1.80;;;25.30;36.90;;;;;;5093461;28;20239;-73
2022/06/10 13:08:52;;;;;;;4.07;2.10;;;25.80;37.30;;;;;;5093412;28;20659;-73
2022/06/10 13:11:32;;;;;;;2.92;1.88;;;27.30;34.90;;;;;;5093379;28;20671;-76
2022/06/10 13:14:16;;;;;;;2.03;1.60;;;28.60;32.90;;;;;;5093532;28;20293;-77
2022/06/10 13:16:47;;;;;;;4.47;1.85;;;31.50;29.30;;;;;;5093548;28;20290;-76
2022/06/10 13:19:33;;;;;;;2.22;1.52;;;33.60;26.00;;;;;;5093576;28;20295;-77